sensor_id;sensor_type;location;lat;lon;timestamp;P1;durP1;ratioP1;P2;durP2;ratioP2
9178;SDS011;71287;48.414;11.478;2024-03-06T00:00:34;10.20;;;9.10;;
9178;SDS011;71287;48.414;11.478;2024-03-06T00:03:02;10.73;;;9.50;;
9178;SDS011;71287;48.414;11.478;2024-03-06T00:05:29;9.27;;;8.37;;
9178;SDS011;71287;48.414;11.478;2024-03-06T00:07:56;9.90;;;8.83;;
9178;SDS011;71287;48.414;11.478;2024-03-06T00:10:22;8.67;;;7.77;;
9178;SDS011;71287;48.414;11.478;2024-03-06T00:12:49;10.27;;;9.17;;
9178;SDS011;71287;48.414;11.478;2024-03-06T00:15:16;8.80;;;7.90;;
9178;SDS011;71287;48.414;11.478;2024-03-06T00:17:43;9.53;;;8.60;;
9178;SDS011;71287;48.414;11.478;2024-03-06T00:20:11;9.70;;;8.80;;
9178;SDS011;71287;48.414;11.478;2024-03-06T00:22:39;10.30;;;8.97;;
9178;SDS011;71287;48.414;11.478;2024-03-06T00:25:06;9.93;;;8.93;;
9178;SDS011;71287;48.414;11.478;2024-03-06T00:27:33;8.97;;;8.07;;
9178;SDS011;71287;48.414;11.478;2024-03-06T00:30:00;9.53;;;8.53;;
9178;SDS011;71287;48.414;11.478;2024-03-06T00:32:28;9.33;;;8.37;;
9178;SDS011;71287;48.414;11.478;2024-03-06T00:34:55;9.37;;;8.37;;
9178;SDS011;71287;48.414;11.478;2024-03-06T00:37:23;9.90;;;8.90;;
9178;SDS011;71287;48.414;11.478;2024-03-06T00:39:49;10.20;;;8.73;;
9178;SDS011;71287;48.414;11.478;2024-03-06T00:42:17;10.63;;;9.20;;
9178;SDS011;71287;48.414;11.478;2024-03-06T00:44:44;9.83;;;8.80;;
9178;SDS011;71287;48.414;11.478;2024-03-06T00:47:10;9.67;;;8.60;;
9178;SDS011;71287;48.414;11.478;2024-03-06T00:49:37;11.67;;;9.30;;
9178;SDS011;71287;48.414;11.478;2024-03-06T00:52:07;10.47;;;9.37;;
9178;SDS011;71287;48.414;11.478;2024-03-06T00:54:35;10.23;;;9.17;;
9178;SDS011;71287;48.414;11.478;2024-03-06T00:57:02;12.53;;;9.23;;
9178;SDS011;71287;48.414;11.478;2024-03-06T00:59:29;10.37;;;8.73;;
9178;SDS011;71287;48.414;11.478;2024-03-06T01:01:56;10.53;;;9.43;;
9178;SDS011;71287;48.414;11.478;2024-03-06T01:04:22;10.87;;;9.07;;
9178;SDS011;71287;48.414;11.478;2024-03-06T01:06:49;10.43;;;9.27;;
9178;SDS011;71287;48.414;11.478;2024-03-06T01:09:16;10.23;;;9.13;;
9178;SDS011;71287;48.414;11.478;2024-03-06T01:11:44;11.07;;;8.60;;
9178;SDS011;71287;48.414;11.478;2024-03-06T01:14:13;10.20;;;9.17;;
9178;SDS011;71287;48.414;11.478;2024-03-06T01:16:39;10.67;;;9.30;;
9178;SDS011;71287;48.414;11.478;2024-03-06T01:19:06;11.40;;;9.97;;
9178;SDS011;71287;48.414;11.478;2024-03-06T01:21:33;10.07;;;9.03;;
9178;SDS011;71287;48.414;11.478;2024-03-06T01:24:00;10.60;;;9.50;;
9178;SDS011;71287;48.414;11.478;2024-03-06T01:26:27;10.30;;;9.20;;
9178;SDS011;71287;48.414;11.478;2024-03-06T01:28:55;11.20;;;9.43;;
9178;SDS011;71287;48.414;11.478;2024-03-06T01:31:22;14.17;;;9.57;;
9178;SDS011;71287;48.414;11.478;2024-03-06T01:33:48;10.07;;;9.07;;
9178;SDS011;71287;48.414;11.478;2024-03-06T01:36:15;12.43;;;9.70;;
9178;SDS011;71287;48.414;11.478;2024-03-06T01:38:42;11.43;;;9.27;;
9178;SDS011;71287;48.414;11.478;2024-03-06T01:41:11;13.07;;;10.10;;
9178;SDS011;71287;48.414;11.478;2024-03-06T01:43:37;9.97;;;8.97;;
9178;SDS011;71287;48.414;11.478;2024-03-06T01:46:06;10.57;;;9.30;;
9178;SDS011;71287;48.414;11.478;2024-03-06T01:48:33;11.20;;;10.00;;
9178;SDS011;71287;48.414;11.478;2024-03-06T01:51:01;10.90;;;9.37;;
9178;SDS011;71287;48.414;11.478;2024-03-06T01:53:30;10.67;;;8.83;;
9178;SDS011;71287;48.414;11.478;2024-03-06T01:55:58;10.73;;;9.30;;
9178;SDS011;71287;48.414;11.478;2024-03-06T01:58:26;11.17;;;9.73;;
9178;SDS011;71287;48.414;11.478;2024-03-06T02:00:53;11.53;;;9.47;;
9178;SDS011;71287;48.414;11.478;2024-03-06T02:03:21;11.93;;;9.47;;
9178;SDS011;71287;48.414;11.478;2024-03-06T02:05:48;12.70;;;10.23;;
9178;SDS011;71287;48.414;11.478;2024-03-06T02:08:16;13.23;;;10.37;;
9178;SDS011;71287;48.414;11.478;2024-03-06T02:10:43;12.73;;;10.53;;
9178;SDS011;71287;48.414;11.478;2024-03-06T02:13:11;12.07;;;10.13;;
9178;SDS011;71287;48.414;11.478;2024-03-06T02:15:38;12.43;;;10.43;;
9178;SDS011;71287;48.414;11.478;2024-03-06T02:18:05;11.47;;;9.97;;
9178;SDS011;71287;48.414;11.478;2024-03-06T02:20:35;12.70;;;10.73;;
9178;SDS011;71287;48.414;11.478;2024-03-06T02:23:03;14.23;;;10.97;;
9178;SDS011;71287;48.414;11.478;2024-03-06T02:25:30;13.13;;;10.23;;
9178;SDS011;71287;48.414;11.478;2024-03-06T02:27:57;12.60;;;11.13;;
9178;SDS011;71287;48.414;11.478;2024-03-06T02:30:24;11.77;;;9.60;;
9178;SDS011;71287;48.414;11.478;2024-03-06T02:32:51;12.67;;;10.63;;
9178;SDS011;71287;48.414;11.478;2024-03-06T02:35:18;12.40;;;10.37;;
9178;SDS011;71287;48.414;11.478;2024-03-06T02:37:46;13.70;;;11.23;;
9178;SDS011;71287;48.414;11.478;2024-03-06T02:40:13;11.63;;;10.03;;
9178;SDS011;71287;48.414;11.478;2024-03-06T02:42:40;14.00;;;11.17;;
9178;SDS011;71287;48.414;11.478;2024-03-06T02:45:07;16.37;;;11.50;;
9178;SDS011;71287;48.414;11.478;2024-03-06T02:47:34;13.93;;;11.07;;
9178;SDS011;71287;48.414;11.478;2024-03-06T02:50:01;14.80;;;11.37;;
9178;SDS011;71287;48.414;11.478;2024-03-06T02:52:28;12.50;;;10.37;;
9178;SDS011;71287;48.414;11.478;2024-03-06T02:54:56;12.83;;;10.60;;
9178;SDS011;71287;48.414;11.478;2024-03-06T02:57:23;15.90;;;11.53;;
9178;SDS011;71287;48.414;11.478;2024-03-06T02:59:52;14.47;;;11.93;;
9178;SDS011;71287;48.414;11.478;2024-03-06T03:02:19;13.80;;;11.10;;
9178;SDS011;71287;48.414;11.478;2024-03-06T03:04:45;12.73;;;11.17;;
9178;SDS011;71287;48.414;11.478;2024-03-06T03:07:12;14.83;;;11.40;;
9178;SDS011;71287;48.414;11.478;2024-03-06T03:09:39;14.27;;;10.90;;
9178;SDS011;71287;48.414;11.478;2024-03-06T03:12:07;13.33;;;11.00;;
9178;SDS011;71287;48.414;11.478;2024-03-06T03:14:36;14.57;;;11.63;;
9178;SDS011;71287;48.414;11.478;2024-03-06T03:17:03;14.40;;;11.17;;
9178;SDS011;71287;48.414;11.478;2024-03-06T03:19:30;13.93;;;11.07;;
9178;SDS011;71287;48.414;11.478;2024-03-06T03:21:57;13.03;;;10.70;;
9178;SDS011;71287;48.414;11.478;2024-03-06T03:24:23;15.43;;;12.17;;
9178;SDS011;71287;48.414;11.478;2024-03-06T03:26:51;15.13;;;11.80;;
9178;SDS011;71287;48.414;11.478;2024-03-06T03:29:19;14.23;;;11.60;;
9178;SDS011;71287;48.414;11.478;2024-03-06T03:31:46;16.17;;;12.40;;
9178;SDS011;71287;48.414;11.478;2024-03-06T03:34:14;15.63;;;11.77;;
9178;SDS011;71287;48.414;11.478;2024-03-06T03:36:40;13.77;;;11.17;;
9178;SDS011;71287;48.414;11.478;2024-03-06T03:39:07;16.10;;;12.37;;
9178;SDS011;71287;48.414;11.478;2024-03-06T03:41:42;13.77;;;10.93;;
9178;SDS011;71287;48.414;11.478;2024-03-06T03:44:10;18.90;;;13.10;;
9178;SDS011;71287;48.414;11.478;2024-03-06T03:46:38;15.37;;;11.97;;
9178;SDS011;71287;48.414;11.478;2024-03-06T03:49:05;14.53;;;11.03;;
9178;SDS011;71287;48.414;11.478;2024-03-06T03:51:33;15.03;;;11.53;;
9178;SDS011;71287;48.414;11.478;2024-03-06T03:53:59;15.83;;;11.97;;
9178;SDS011;71287;48.414;11.478;2024-03-06T03:56:26;14.90;;;11.47;;
9178;SDS011;71287;48.414;11.478;2024-03-06T03:58:53;16.07;;;11.63;;
9178;SDS011;71287;48.414;11.478;2024-03-06T04:01:20;16.10;;;12.50;;
9178;SDS011;71287;48.414;11.478;2024-03-06T04:03:49;14.67;;;11.97;;
9178;SDS011;71287;48.414;11.478;2024-03-06T04:06:16;15.73;;;11.73;;
9178;SDS011;71287;48.414;11.478;2024-03-06T04:08:43;15.83;;;12.33;;
9178;SDS011;71287;48.414;11.478;2024-03-06T04:11:10;16.13;;;12.20;;
9178;SDS011;71287;48.414;11.478;2024-03-06T04:13:37;15.93;;;12.03;;
9178;SDS011;71287;48.414;11.478;2024-03-06T04:16:04;16.50;;;12.10;;
9178;SDS011;71287;48.414;11.478;2024-03-06T04:18:32;17.77;;;13.50;;
9178;SDS011;71287;48.414;11.478;2024-03-06T04:21:02;16.70;;;12.10;;
9178;SDS011;71287;48.414;11.478;2024-03-06T04:23:30;16.33;;;12.67;;
9178;SDS011;71287;48.414;11.478;2024-03-06T04:25:57;18.77;;;12.73;;
9178;SDS011;71287;48.414;11.478;2024-03-06T04:28:24;16.10;;;12.33;;
9178;SDS011;71287;48.414;11.478;2024-03-06T04:30:51;18.17;;;12.43;;
9178;SDS011;71287;48.414;11.478;2024-03-06T04:33:18;16.80;;;12.53;;
9178;SDS011;71287;48.414;11.478;2024-03-06T04:35:45;15.67;;;11.87;;
9178;SDS011;71287;48.414;11.478;2024-03-06T04:38:13;15.43;;;12.17;;
9178;SDS011;71287;48.414;11.478;2024-03-06T04:40:40;16.70;;;12.10;;
9178;SDS011;71287;48.414;11.478;2024-03-06T04:43:07;15.77;;;12.10;;
9178;SDS011;71287;48.414;11.478;2024-03-06T04:45:34;17.77;;;12.00;;
9178;SDS011;71287;48.414;11.478;2024-03-06T04:48:01;16.17;;;12.73;;
9178;SDS011;71287;48.414;11.478;2024-03-06T04:50:28;15.83;;;12.50;;
9178;SDS011;71287;48.414;11.478;2024-03-06T04:52:55;16.40;;;11.87;;
9178;SDS011;71287;48.414;11.478;2024-03-06T04:55:23;17.57;;;12.90;;
9178;SDS011;71287;48.414;11.478;2024-03-06T04:57:51;19.83;;;12.20;;
9178;SDS011;71287;48.414;11.478;2024-03-06T05:00:18;17.33;;;12.93;;
9178;SDS011;71287;48.414;11.478;2024-03-06T05:02:45;16.30;;;13.00;;
9178;SDS011;71287;48.414;11.478;2024-03-06T05:05:14;17.53;;;13.07;;
9178;SDS011;71287;48.414;11.478;2024-03-06T05:07:41;16.53;;;13.00;;
9178;SDS011;71287;48.414;11.478;2024-03-06T05:10:08;17.37;;;13.70;;
9178;SDS011;71287;48.414;11.478;2024-03-06T05:12:36;17.80;;;12.53;;
9178;SDS011;71287;48.414;11.478;2024-03-06T05:15:03;15.80;;;12.03;;
9178;SDS011;71287;48.414;11.478;2024-03-06T05:17:31;19.87;;;13.47;;
9178;SDS011;71287;48.414;11.478;2024-03-06T05:19:58;16.33;;;12.07;;
9178;SDS011;71287;48.414;11.478;2024-03-06T05:22:25;18.10;;;12.50;;
9178;SDS011;71287;48.414;11.478;2024-03-06T05:24:52;17.50;;;13.33;;
9178;SDS011;71287;48.414;11.478;2024-03-06T05:27:20;17.80;;;13.17;;
9178;SDS011;71287;48.414;11.478;2024-03-06T05:29:48;16.67;;;12.60;;
9178;SDS011;71287;48.414;11.478;2024-03-06T05:32:14;18.53;;;13.40;;
9178;SDS011;71287;48.414;11.478;2024-03-06T05:34:41;19.73;;;13.73;;
9178;SDS011;71287;48.414;11.478;2024-03-06T05:37:08;16.73;;;12.63;;
9178;SDS011;71287;48.414;11.478;2024-03-06T05:39:35;18.70;;;12.97;;
9178;SDS011;71287;48.414;11.478;2024-03-06T05:42:02;18.50;;;13.03;;
9178;SDS011;71287;48.414;11.478;2024-03-06T05:44:30;17.43;;;11.90;;
9178;SDS011;71287;48.414;11.478;2024-03-06T05:46:58;17.10;;;12.93;;
9178;SDS011;71287;48.414;11.478;2024-03-06T05:49:26;19.07;;;13.70;;
9178;SDS011;71287;48.414;11.478;2024-03-06T05:51:53;16.13;;;12.63;;
9178;SDS011;71287;48.414;11.478;2024-03-06T05:54:20;18.80;;;12.20;;
9178;SDS011;71287;48.414;11.478;2024-03-06T05:56:47;15.17;;;11.90;;
9178;SDS011;71287;48.414;11.478;2024-03-06T05:59:16;17.10;;;12.13;;
9178;SDS011;71287;48.414;11.478;2024-03-06T06:01:43;18.77;;;13.03;;
9178;SDS011;71287;48.414;11.478;2024-03-06T06:04:11;16.53;;;11.67;;
9178;SDS011;71287;48.414;11.478;2024-03-06T06:06:38;14.47;;;11.07;;
9178;SDS011;71287;48.414;11.478;2024-03-06T06:09:06;16.87;;;12.33;;
9178;SDS011;71287;48.414;11.478;2024-03-06T06:11:37;15.57;;;12.13;;
9178;SDS011;71287;48.414;11.478;2024-03-06T06:14:04;18.13;;;13.23;;
9178;SDS011;71287;48.414;11.478;2024-03-06T06:16:34;17.33;;;12.13;;
9178;SDS011;71287;48.414;11.478;2024-03-06T06:19:02;17.77;;;11.83;;
9178;SDS011;71287;48.414;11.478;2024-03-06T06:21:30;16.37;;;11.83;;
9178;SDS011;71287;48.414;11.478;2024-03-06T06:23:57;15.33;;;11.10;;
9178;SDS011;71287;48.414;11.478;2024-03-06T06:26:23;16.97;;;12.07;;
9178;SDS011;71287;48.414;11.478;2024-03-06T06:28:50;14.77;;;11.73;;
9178;SDS011;71287;48.414;11.478;2024-03-06T06:31:17;16.47;;;11.13;;
9178;SDS011;71287;48.414;11.478;2024-03-06T06:33:44;15.77;;;11.93;;
9178;SDS011;71287;48.414;11.478;2024-03-06T06:36:12;14.93;;;11.37;;
9178;SDS011;71287;48.414;11.478;2024-03-06T06:38:40;16.23;;;11.60;;
9178;SDS011;71287;48.414;11.478;2024-03-06T06:41:07;15.87;;;11.37;;
9178;SDS011;71287;48.414;11.478;2024-03-06T06:43:33;15.37;;;11.23;;
9178;SDS011;71287;48.414;11.478;2024-03-06T06:46:00;14.27;;;10.53;;
9178;SDS011;71287;48.414;11.478;2024-03-06T06:48:29;15.73;;;11.60;;
9178;SDS011;71287;48.414;11.478;2024-03-06T06:50:58;17.20;;;11.13;;
9178;SDS011;71287;48.414;11.478;2024-03-06T06:53:25;14.63;;;10.90;;
9178;SDS011;71287;48.414;11.478;2024-03-06T06:55:53;14.43;;;10.50;;
9178;SDS011;71287;48.414;11.478;2024-03-06T06:58:20;15.37;;;10.77;;
9178;SDS011;71287;48.414;11.478;2024-03-06T07:00:47;15.53;;;11.20;;
9178;SDS011;71287;48.414;11.478;2024-03-06T07:03:14;15.10;;;11.20;;
9178;SDS011;71287;48.414;11.478;2024-03-06T07:05:41;15.90;;;11.10;;
9178;SDS011;71287;48.414;11.478;2024-03-06T07:08:07;14.63;;;11.33;;
9178;SDS011;71287;48.414;11.478;2024-03-06T07:10:34;15.20;;;11.03;;
9178;SDS011;71287;48.414;11.478;2024-03-06T07:13:03;14.07;;;10.17;;
9178;SDS011;71287;48.414;11.478;2024-03-06T07:15:31;15.20;;;11.33;;
9178;SDS011;71287;48.414;11.478;2024-03-06T07:17:57;15.00;;;10.93;;
9178;SDS011;71287;48.414;11.478;2024-03-06T07:20:24;14.13;;;10.60;;
9178;SDS011;71287;48.414;11.478;2024-03-06T07:22:51;14.07;;;10.70;;
9178;SDS011;71287;48.414;11.478;2024-03-06T07:25:17;14.07;;;10.90;;
9178;SDS011;71287;48.414;11.478;2024-03-06T07:27:45;15.37;;;11.43;;
9178;SDS011;71287;48.414;11.478;2024-03-06T07:30:14;15.53;;;11.27;;
9178;SDS011;71287;48.414;11.478;2024-03-06T07:32:41;16.00;;;11.17;;
9178;SDS011;71287;48.414;11.478;2024-03-06T07:35:08;13.37;;;10.33;;
9178;SDS011;71287;48.414;11.478;2024-03-06T07:37:35;13.67;;;10.20;;
9178;SDS011;71287;48.414;11.478;2024-03-06T07:40:02;15.40;;;11.00;;
9178;SDS011;71287;48.414;11.478;2024-03-06T07:42:30;13.17;;;10.20;;
9178;SDS011;71287;48.414;11.478;2024-03-06T07:44:57;18.30;;;11.00;;
9178;SDS011;71287;48.414;11.478;2024-03-06T07:47:25;13.87;;;10.20;;
9178;SDS011;71287;48.414;11.478;2024-03-06T07:49:51;13.77;;;10.10;;
9178;SDS011;71287;48.414;11.478;2024-03-06T07:52:18;15.00;;;11.10;;
9178;SDS011;71287;48.414;11.478;2024-03-06T07:54:45;13.67;;;10.40;;
9178;SDS011;71287;48.414;11.478;2024-03-06T07:57:12;14.00;;;10.80;;
9178;SDS011;71287;48.414;11.478;2024-03-06T07:59:39;13.43;;;10.67;;
9178;SDS011;71287;48.414;11.478;2024-03-06T08:02:05;15.63;;;11.27;;
9178;SDS011;71287;48.414;11.478;2024-03-06T08:04:34;15.03;;;11.07;;
9178;SDS011;71287;48.414;11.478;2024-03-06T08:07:01;16.80;;;12.30;;
9178;SDS011;71287;48.414;11.478;2024-03-06T08:09:28;15.70;;;12.17;;
9178;SDS011;71287;48.414;11.478;2024-03-06T08:11:55;21.10;;;13.03;;
9178;SDS011;71287;48.414;11.478;2024-03-06T08:14:22;21.23;;;11.57;;
9178;SDS011;71287;48.414;11.478;2024-03-06T08:16:48;16.90;;;12.27;;
9178;SDS011;71287;48.414;11.478;2024-03-06T08:19:15;18.27;;;13.13;;
9178;SDS011;71287;48.414;11.478;2024-03-06T08:21:43;19.33;;;13.33;;
9178;SDS011;71287;48.414;11.478;2024-03-06T08:24:11;19.20;;;13.93;;
9178;SDS011;71287;48.414;11.478;2024-03-06T08:26:37;19.67;;;13.93;;
9178;SDS011;71287;48.414;11.478;2024-03-06T08:29:04;16.73;;;13.27;;
9178;SDS011;71287;48.414;11.478;2024-03-06T08:31:31;19.90;;;14.47;;
9178;SDS011;71287;48.414;11.478;2024-03-06T08:33:58;22.40;;;14.97;;
9178;SDS011;71287;48.414;11.478;2024-03-06T08:36:25;22.30;;;15.50;;
9178;SDS011;71287;48.414;11.478;2024-03-06T08:38:53;23.17;;;16.40;;
9178;SDS011;71287;48.414;11.478;2024-03-06T08:41:20;20.67;;;14.97;;
9178;SDS011;71287;48.414;11.478;2024-03-06T08:43:47;22.57;;;15.23;;
9178;SDS011;71287;48.414;11.478;2024-03-06T08:46:13;22.93;;;15.77;;
9178;SDS011;71287;48.414;11.478;2024-03-06T08:48:40;23.57;;;16.13;;
9178;SDS011;71287;48.414;11.478;2024-03-06T08:51:07;21.40;;;15.37;;
9178;SDS011;71287;48.414;11.478;2024-03-06T08:53:36;21.37;;;15.00;;
9178;SDS011;71287;48.414;11.478;2024-03-06T08:56:05;21.43;;;15.87;;
9178;SDS011;71287;48.414;11.478;2024-03-06T08:58:32;22.57;;;16.30;;
9178;SDS011;71287;48.414;11.478;2024-03-06T09:00:59;21.87;;;15.77;;
9178;SDS011;71287;48.414;11.478;2024-03-06T09:03:25;21.33;;;15.50;;
9178;SDS011;71287;48.414;11.478;2024-03-06T09:05:52;23.70;;;17.00;;
9178;SDS011;71287;48.414;11.478;2024-03-06T09:08:19;21.60;;;15.87;;
9178;SDS011;71287;48.414;11.478;2024-03-06T09:10:46;25.87;;;17.03;;
9178;SDS011;71287;48.414;11.478;2024-03-06T09:13:14;21.83;;;16.53;;
9178;SDS011;71287;48.414;11.478;2024-03-06T09:15:40;24.50;;;17.70;;
9178;SDS011;71287;48.414;11.478;2024-03-06T09:18:08;26.57;;;17.33;;
9178;SDS011;71287;48.414;11.478;2024-03-06T09:20:34;24.10;;;17.43;;
9178;SDS011;71287;48.414;11.478;2024-03-06T09:23:01;23.50;;;16.27;;
9178;SDS011;71287;48.414;11.478;2024-03-06T09:25:28;22.47;;;15.67;;
9178;SDS011;71287;48.414;11.478;2024-03-06T09:27:55;24.07;;;17.90;;
9178;SDS011;71287;48.414;11.478;2024-03-06T09:30:23;23.87;;;17.03;;
9178;SDS011;71287;48.414;11.478;2024-03-06T09:32:50;25.60;;;17.27;;
9178;SDS011;71287;48.414;11.478;2024-03-06T09:35:16;23.57;;;17.30;;
9178;SDS011;71287;48.414;11.478;2024-03-06T09:37:44;23.43;;;17.30;;
9178;SDS011;71287;48.414;11.478;2024-03-06T09:40:16;24.30;;;16.77;;
9178;SDS011;71287;48.414;11.478;2024-03-06T09:42:46;21.40;;;15.60;;
9178;SDS011;71287;48.414;11.478;2024-03-06T09:45:14;19.30;;;14.03;;
9178;SDS011;71287;48.414;11.478;2024-03-06T09:47:42;22.90;;;16.13;;
9178;SDS011;71287;48.414;11.478;2024-03-06T09:50:09;18.93;;;14.53;;
9178;SDS011;71287;48.414;11.478;2024-03-06T09:52:36;20.80;;;15.77;;
9178;SDS011;71287;48.414;11.478;2024-03-06T09:55:06;21.20;;;15.57;;
9178;SDS011;71287;48.414;11.478;2024-03-06T09:57:34;20.10;;;14.73;;
9178;SDS011;71287;48.414;11.478;2024-03-06T10:00:02;22.43;;;15.83;;
9178;SDS011;71287;48.414;11.478;2024-03-06T10:02:34;19.50;;;15.67;;
9178;SDS011;71287;48.414;11.478;2024-03-06T10:05:06;23.40;;;15.67;;
9178;SDS011;71287;48.414;11.478;2024-03-06T10:07:46;22.80;;;15.77;;
9178;SDS011;71287;48.414;11.478;2024-03-06T10:10:14;21.67;;;16.13;;
9178;SDS011;71287;48.414;11.478;2024-03-06T10:12:41;20.73;;;15.10;;
9178;SDS011;71287;48.414;11.478;2024-03-06T10:15:09;20.53;;;14.63;;
9178;SDS011;71287;48.414;11.478;2024-03-06T10:17:37;22.53;;;15.63;;
9178;SDS011;71287;48.414;11.478;2024-03-06T10:20:16;17.43;;;13.83;;
9178;SDS011;71287;48.414;11.478;2024-03-06T10:22:50;18.90;;;14.80;;
9178;SDS011;71287;48.414;11.478;2024-03-06T10:25:18;20.67;;;15.13;;
9178;SDS011;71287;48.414;11.478;2024-03-06T10:27:46;22.80;;;14.50;;
9178;SDS011;71287;48.414;11.478;2024-03-06T10:30:26;18.97;;;14.47;;
9178;SDS011;71287;48.414;11.478;2024-03-06T10:32:53;19.07;;;14.50;;
9178;SDS011;71287;48.414;11.478;2024-03-06T10:35:21;17.63;;;13.73;;
9178;SDS011;71287;48.414;11.478;2024-03-06T10:37:49;20.97;;;14.47;;
9178;SDS011;71287;48.414;11.478;2024-03-06T10:40:17;23.67;;;15.97;;
9178;SDS011;71287;48.414;11.478;2024-03-06T10:42:44;19.90;;;14.80;;
9178;SDS011;71287;48.414;11.478;2024-03-06T10:45:11;20.53;;;15.07;;
9178;SDS011;71287;48.414;11.478;2024-03-06T10:47:39;21.50;;;16.23;;
9178;SDS011;71287;48.414;11.478;2024-03-06T10:50:08;22.07;;;15.17;;
9178;SDS011;71287;48.414;11.478;2024-03-06T10:52:37;21.23;;;15.60;;
9178;SDS011;71287;48.414;11.478;2024-03-06T10:55:06;24.20;;;16.27;;
9178;SDS011;71287;48.414;11.478;2024-03-06T10:57:35;19.87;;;15.90;;
9178;SDS011;71287;48.414;11.478;2024-03-06T11:00:03;20.07;;;15.80;;
9178;SDS011;71287;48.414;11.478;2024-03-06T11:02:31;22.03;;;16.13;;
9178;SDS011;71287;48.414;11.478;2024-03-06T11:05:00;20.50;;;16.50;;
9178;SDS011;71287;48.414;11.478;2024-03-06T11:07:30;21.47;;;16.77;;
9178;SDS011;71287;48.414;11.478;2024-03-06T11:09:59;24.07;;;16.77;;
9178;SDS011;71287;48.414;11.478;2024-03-06T11:12:32;21.30;;;17.03;;
9178;SDS011;71287;48.414;11.478;2024-03-06T11:15:01;21.63;;;16.37;;
9178;SDS011;71287;48.414;11.478;2024-03-06T11:17:36;19.27;;;15.13;;
9178;SDS011;71287;48.414;11.478;2024-03-06T11:20:09;20.40;;;16.13;;
9178;SDS011;71287;48.414;11.478;2024-03-06T11:28:24;20.53;;;14.70;;
9178;SDS011;71287;48.414;11.478;2024-03-06T11:30:55;19.97;;;13.37;;
9178;SDS011;71287;48.414;11.478;2024-03-06T11:33:23;20.70;;;13.97;;
9178;SDS011;71287;48.414;11.478;2024-03-06T11:38:42;18.80;;;13.33;;
9178;SDS011;71287;48.414;11.478;2024-03-06T11:41:10;23.20;;;14.70;;
9178;SDS011;71287;48.414;11.478;2024-03-06T11:43:42;19.33;;;13.23;;
9178;SDS011;71287;48.414;11.478;2024-03-06T11:46:09;20.40;;;14.03;;
9178;SDS011;71287;48.414;11.478;2024-03-06T11:48:36;20.63;;;15.13;;
9178;SDS011;71287;48.414;11.478;2024-03-06T11:51:03;18.53;;;14.10;;
9178;SDS011;71287;48.414;11.478;2024-03-06T11:53:30;20.90;;;14.73;;
9178;SDS011;71287;48.414;11.478;2024-03-06T11:55:59;19.80;;;14.30;;
9178;SDS011;71287;48.414;11.478;2024-03-06T11:58:27;19.43;;;14.90;;
9178;SDS011;71287;48.414;11.478;2024-03-06T12:00:54;20.23;;;14.00;;
9178;SDS011;71287;48.414;11.478;2024-03-06T12:03:21;21.30;;;14.10;;
9178;SDS011;71287;48.414;11.478;2024-03-06T12:05:50;19.93;;;14.63;;
9178;SDS011;71287;48.414;11.478;2024-03-06T12:08:17;18.10;;;15.00;;
9178;SDS011;71287;48.414;11.478;2024-03-06T12:10:45;17.53;;;14.00;;
9178;SDS011;71287;48.414;11.478;2024-03-06T12:13:12;18.63;;;14.40;;
9178;SDS011;71287;48.414;11.478;2024-03-06T12:15:43;19.50;;;14.70;;
9178;SDS011;71287;48.414;11.478;2024-03-06T12:18:10;19.50;;;13.23;;
9178;SDS011;71287;48.414;11.478;2024-03-06T12:20:40;19.10;;;14.00;;
9178;SDS011;71287;48.414;11.478;2024-03-06T12:23:10;17.30;;;14.00;;
9178;SDS011;71287;48.414;11.478;2024-03-06T12:25:45;21.40;;;15.30;;
9178;SDS011;71287;48.414;11.478;2024-03-06T12:28:12;19.20;;;13.93;;
9178;SDS011;71287;48.414;11.478;2024-03-06T12:30:40;20.33;;;13.93;;
9178;SDS011;71287;48.414;11.478;2024-03-06T12:33:09;20.40;;;14.87;;
9178;SDS011;71287;48.414;11.478;2024-03-06T12:35:39;17.73;;;14.07;;
9178;SDS011;71287;48.414;11.478;2024-03-06T12:38:11;17.03;;;14.00;;
9178;SDS011;71287;48.414;11.478;2024-03-06T12:40:39;19.20;;;13.90;;
9178;SDS011;71287;48.414;11.478;2024-03-06T12:43:05;16.90;;;13.63;;
9178;SDS011;71287;48.414;11.478;2024-03-06T12:45:32;16.17;;;14.30;;
9178;SDS011;71287;48.414;11.478;2024-03-06T12:48:01;17.20;;;14.17;;
9178;SDS011;71287;48.414;11.478;2024-03-06T12:50:29;16.37;;;13.40;;
9178;SDS011;71287;48.414;11.478;2024-03-06T12:52:56;17.40;;;13.57;;
9178;SDS011;71287;48.414;11.478;2024-03-06T12:55:23;16.37;;;13.00;;
9178;SDS011;71287;48.414;11.478;2024-03-06T12:57:51;15.93;;;12.23;;
9178;SDS011;71287;48.414;11.478;2024-03-06T13:00:18;16.30;;;11.47;;
9178;SDS011;71287;48.414;11.478;2024-03-06T13:02:45;16.40;;;11.87;;
9178;SDS011;71287;48.414;11.478;2024-03-06T13:05:13;17.63;;;12.70;;
9178;SDS011;71287;48.414;11.478;2024-03-06T13:07:41;14.27;;;11.67;;
9178;SDS011;71287;48.414;11.478;2024-03-06T13:10:09;16.60;;;12.30;;
9178;SDS011;71287;48.414;11.478;2024-03-06T13:12:36;15.63;;;11.23;;
9178;SDS011;71287;48.414;11.478;2024-03-06T13:15:04;16.07;;;11.10;;
9178;SDS011;71287;48.414;11.478;2024-03-06T13:17:32;14.20;;;11.23;;
9178;SDS011;71287;48.414;11.478;2024-03-06T13:19:59;14.47;;;11.80;;
9178;SDS011;71287;48.414;11.478;2024-03-06T13:22:28;15.37;;;11.50;;
9178;SDS011;71287;48.414;11.478;2024-03-06T13:24:54;16.33;;;11.67;;
9178;SDS011;71287;48.414;11.478;2024-03-06T13:27:22;16.70;;;12.00;;
9178;SDS011;71287;48.414;11.478;2024-03-06T13:29:49;16.00;;;11.47;;
9178;SDS011;71287;48.414;11.478;2024-03-06T13:32:16;13.83;;;10.57;;
9178;SDS011;71287;48.414;11.478;2024-03-06T13:34:42;15.27;;;11.27;;
9178;SDS011;71287;48.414;11.478;2024-03-06T13:37:09;14.90;;;11.33;;
9178;SDS011;71287;48.414;11.478;2024-03-06T13:39:38;15.80;;;11.63;;
9178;SDS011;71287;48.414;11.478;2024-03-06T13:42:05;16.60;;;12.07;;
9178;SDS011;71287;48.414;11.478;2024-03-06T13:44:33;14.97;;;11.33;;
9178;SDS011;71287;48.414;11.478;2024-03-06T13:47:00;18.13;;;11.87;;
9178;SDS011;71287;48.414;11.478;2024-03-06T13:49:39;18.53;;;13.10;;
9178;SDS011;71287;48.414;11.478;2024-03-06T13:52:07;16.70;;;12.40;;
9178;SDS011;71287;48.414;11.478;2024-03-06T13:54:35;17.30;;;13.00;;
9178;SDS011;71287;48.414;11.478;2024-03-06T13:57:05;17.97;;;13.37;;
9178;SDS011;71287;48.414;11.478;2024-03-06T13:59:33;16.43;;;12.53;;
9178;SDS011;71287;48.414;11.478;2024-03-06T14:02:00;16.97;;;13.10;;
9178;SDS011;71287;48.414;11.478;2024-03-06T14:04:28;17.17;;;12.80;;
9178;SDS011;71287;48.414;11.478;2024-03-06T14:06:55;14.47;;;12.10;;
9178;SDS011;71287;48.414;11.478;2024-03-06T14:09:23;18.83;;;12.97;;
9178;SDS011;71287;48.414;11.478;2024-03-06T14:11:51;18.27;;;13.30;;
9178;SDS011;71287;48.414;11.478;2024-03-06T14:14:19;16.40;;;12.73;;
9178;SDS011;71287;48.414;11.478;2024-03-06T14:16:46;18.20;;;13.50;;
9178;SDS011;71287;48.414;11.478;2024-03-06T14:19:13;21.63;;;15.10;;
9178;SDS011;71287;48.414;11.478;2024-03-06T14:21:40;18.27;;;13.20;;
9178;SDS011;71287;48.414;11.478;2024-03-06T14:24:06;19.73;;;13.27;;
9178;SDS011;71287;48.414;11.478;2024-03-06T14:26:34;19.90;;;12.77;;
9178;SDS011;71287;48.414;11.478;2024-03-06T14:29:03;16.80;;;12.73;;
9178;SDS011;71287;48.414;11.478;2024-03-06T14:31:32;18.77;;;13.90;;
9178;SDS011;71287;48.414;11.478;2024-03-06T14:33:59;17.27;;;13.60;;